sensor_id;sensor_type;location;lat;lon;timestamp;temperature;humidity
15296;DHT22;7749;49.964;7.890;2023-07-20T00:01:57;19.60;1.00
15296;DHT22;7749;49.964;7.890;2023-07-20T00:04:24;19.60;1.00
15296;DHT22;7749;49.964;7.890;2023-07-20T00:06:52;19.60;1.00
15296;DHT22;7749;49.964;7.890;2023-07-20T00:09:19;19.50;99.90
15296;DHT22;7749;49.964;7.890;2023-07-20T00:11:52;19.50;99.90
15296;DHT22;7749;49.964;7.890;2023-07-20T00:14:20;19.40;1.00
15296;DHT22;7749;49.964;7.890;2023-07-20T00:16:49;19.40;99.90
15296;DHT22;7749;49.964;7.890;2023-07-20T00:19:26;19.40;99.90
15296;DHT22;7749;49.964;7.890;2023-07-20T00:21:56;19.40;99.90
15296;DHT22;7749;49.964;7.890;2023-07-20T00:24:24;19.30;1.00
15296;DHT22;7749;49.964;7.890;2023-07-20T00:26:51;19.30;1.00
15296;DHT22;7749;49.964;7.890;2023-07-20T00:29:19;19.30;1.00
15296;DHT22;7749;49.964;7.890;2023-07-20T00:31:46;19.20;99.90
15296;DHT22;7749;49.964;7.890;2023-07-20T00:34:15;19.10;99.90
15296;DHT22;7749;49.964;7.890;2023-07-20T00:36:43;19.10;1.00
15296;DHT22;7749;49.964;7.890;2023-07-20T00:39:10;19.10;1.00
15296;DHT22;7749;49.964;7.890;2023-07-20T00:41:38;19.00;1.00
15296;DHT22;7749;49.964;7.890;2023-07-20T00:44:05;19.00;99.90
15296;DHT22;7749;49.964;7.890;2023-07-20T00:46:33;19.00;1.00
15296;DHT22;7749;49.964;7.890;2023-07-20T00:49:01;18.90;49.10
15296;DHT22;7749;49.964;7.890;2023-07-20T00:51:29;18.90;99.90
15296;DHT22;7749;49.964;7.890;2023-07-20T00:53:57;18.90;99.90
15296;DHT22;7749;49.964;7.890;2023-07-20T00:56:25;18.80;1.00
15296;DHT22;7749;49.964;7.890;2023-07-20T00:58:53;18.80;1.00
15296;DHT22;7749;49.964;7.890;2023-07-20T01:01:21;18.80;1.00
15296;DHT22;7749;49.964;7.890;2023-07-20T01:03:49;18.80;99.90
15296;DHT22;7749;49.964;7.890;2023-07-20T01:11:59;18.80;41.20
15296;DHT22;7749;49.964;7.890;2023-07-20T01:14:28;18.80;1.00
15296;DHT22;7749;49.964;7.890;2023-07-20T01:16:55;18.80;1.00
15296;DHT22;7749;49.964;7.890;2023-07-20T01:19:23;18.70;1.00
15296;DHT22;7749;49.964;7.890;2023-07-20T01:21:59;18.60;1.00
15296;DHT22;7749;49.964;7.890;2023-07-20T01:32:54;18.50;99.90
15296;DHT22;7749;49.964;7.890;2023-07-20T01:35:29;18.40;99.90
15296;DHT22;7749;49.964;7.890;2023-07-20T01:37:57;18.20;99.90
15296;DHT22;7749;49.964;7.890;2023-07-20T01:40:26;18.00;1.00
15296;DHT22;7749;49.964;7.890;2023-07-20T01:42:54;17.80;80.40
15296;DHT22;7749;49.964;7.890;2023-07-20T01:45:21;17.80;99.90
15296;DHT22;7749;49.964;7.890;2023-07-20T01:47:49;17.60;99.90
15296;DHT22;7749;49.964;7.890;2023-07-20T01:50:16;17.60;99.90
15296;DHT22;7749;49.964;7.890;2023-07-20T01:52:44;17.70;99.90
15296;DHT22;7749;49.964;7.890;2023-07-20T01:55:11;17.70;99.90
15296;DHT22;7749;49.964;7.890;2023-07-20T01:57:39;17.70;99.90
15296;DHT22;7749;49.964;7.890;2023-07-20T02:00:07;17.70;99.90
15296;DHT22;7749;49.964;7.890;2023-07-20T02:02:36;17.70;99.90
15296;DHT22;7749;49.964;7.890;2023-07-20T02:05:03;17.70;1.00
15296;DHT22;7749;49.964;7.890;2023-07-20T02:07:31;17.60;1.00
15296;DHT22;7749;49.964;7.890;2023-07-20T02:09:58;17.60;1.00
15296;DHT22;7749;49.964;7.890;2023-07-20T02:12:26;17.60;1.00
15296;DHT22;7749;49.964;7.890;2023-07-20T02:14:53;17.60;1.00
15296;DHT22;7749;49.964;7.890;2023-07-20T02:17:21;17.60;1.00
15296;DHT22;7749;49.964;7.890;2023-07-20T02:19:56;17.50;1.00
15296;DHT22;7749;49.964;7.890;2023-07-20T02:22:24;17.50;1.00
15296;DHT22;7749;49.964;7.890;2023-07-20T02:24:52;17.50;1.00
15296;DHT22;7749;49.964;7.890;2023-07-20T02:27:20;17.50;1.00
15296;DHT22;7749;49.964;7.890;2023-07-20T02:29:47;17.50;1.00
15296;DHT22;7749;49.964;7.890;2023-07-20T02:32:15;17.50;1.00
15296;DHT22;7749;49.964;7.890;2023-07-20T02:34:42;17.40;1.00
15296;DHT22;7749;49.964;7.890;2023-07-20T02:37:09;17.40;1.00
15296;DHT22;7749;49.964;7.890;2023-07-20T02:39:40;17.50;1.00
15296;DHT22;7749;49.964;7.890;2023-07-20T02:42:07;17.50;1.00
15296;DHT22;7749;49.964;7.890;2023-07-20T02:44:35;17.50;1.00
15296;DHT22;7749;49.964;7.890;2023-07-20T02:47:02;17.40;1.00
15296;DHT22;7749;49.964;7.890;2023-07-20T02:49:31;17.40;1.00
15296;DHT22;7749;49.964;7.890;2023-07-20T02:51:58;17.40;1.00
15296;DHT22;7749;49.964;7.890;2023-07-20T02:54:26;17.30;1.00
15296;DHT22;7749;49.964;7.890;2023-07-20T02:56:53;17.20;1.00
15296;DHT22;7749;49.964;7.890;2023-07-20T02:59:21;17.10;1.00
15296;DHT22;7749;49.964;7.890;2023-07-20T03:01:48;17.00;1.00
15296;DHT22;7749;49.964;7.890;2023-07-20T03:04:16;17.00;1.00
15296;DHT22;7749;49.964;7.890;2023-07-20T03:06:43;16.90;1.00
15296;DHT22;7749;49.964;7.890;2023-07-20T03:09:11;16.90;1.00
15296;DHT22;7749;49.964;7.890;2023-07-20T03:11:38;16.80;1.00
15296;DHT22;7749;49.964;7.890;2023-07-20T03:14:06;16.80;1.00
15296;DHT22;7749;49.964;7.890;2023-07-20T03:16:33;16.80;1.00
15296;DHT22;7749;49.964;7.890;2023-07-20T03:19:01;16.80;1.00
15296;DHT22;7749;49.964;7.890;2023-07-20T03:21:28;16.70;1.00
15296;DHT22;7749;49.964;7.890;2023-07-20T03:23:56;16.60;1.00
15296;DHT22;7749;49.964;7.890;2023-07-20T03:26:24;16.60;1.00
15296;DHT22;7749;49.964;7.890;2023-07-20T03:28:51;16.50;1.00
15296;DHT22;7749;49.964;7.890;2023-07-20T03:31:19;16.50;1.00
15296;DHT22;7749;49.964;7.890;2023-07-20T03:33:47;16.60;1.00
15296;DHT22;7749;49.964;7.890;2023-07-20T03:36:14;16.60;1.00
15296;DHT22;7749;49.964;7.890;2023-07-20T03:38:42;16.60;1.00
15296;DHT22;7749;49.964;7.890;2023-07-20T03:41:09;16.70;1.00
15296;DHT22;7749;49.964;7.890;2023-07-20T03:43:39;16.60;1.00
15296;DHT22;7749;49.964;7.890;2023-07-20T03:46:06;16.50;1.00
15296;DHT22;7749;49.964;7.890;2023-07-20T03:48:34;16.50;1.00
15296;DHT22;7749;49.964;7.890;2023-07-20T03:51:02;16.40;1.00
15296;DHT22;7749;49.964;7.890;2023-07-20T03:53:29;16.40;1.00
15296;DHT22;7749;49.964;7.890;2023-07-20T03:55:57;16.20;1.00
15296;DHT22;7749;49.964;7.890;2023-07-20T03:58:24;16.30;1.00
15296;DHT22;7749;49.964;7.890;2023-07-20T04:00:52;16.20;1.00
15296;DHT22;7749;49.964;7.890;2023-07-20T04:03:20;16.20;1.00
15296;DHT22;7749;49.964;7.890;2023-07-20T04:05:47;16.20;1.00
15296;DHT22;7749;49.964;7.890;2023-07-20T04:08:15;16.20;1.00
15296;DHT22;7749;49.964;7.890;2023-07-20T04:10:45;16.20;1.00
15296;DHT22;7749;49.964;7.890;2023-07-20T04:13:13;16.20;1.00
15296;DHT22;7749;49.964;7.890;2023-07-20T04:15:40;16.20;1.00
15296;DHT22;7749;49.964;7.890;2023-07-20T04:18:08;16.30;1.00
15296;DHT22;7749;49.964;7.890;2023-07-20T04:20:35;16.40;1.00
15296;DHT22;7749;49.964;7.890;2023-07-20T04:23:03;16.50;1.00
15296;DHT22;7749;49.964;7.890;2023-07-20T04:25:30;16.70;1.00
15296;DHT22;7749;49.964;7.890;2023-07-20T04:28:07;16.80;1.00
15296;DHT22;7749;49.964;7.890;2023-07-20T04:30:38;17.00;1.00
15296;DHT22;7749;49.964;7.890;2023-07-20T04:33:07;17.20;1.00
15296;DHT22;7749;49.964;7.890;2023-07-20T04:35:52;17.30;1.00
15296;DHT22;7749;49.964;7.890;2023-07-20T04:38:20;17.50;1.00
15296;DHT22;7749;49.964;7.890;2023-07-20T04:40:49;17.50;1.00
15296;DHT22;7749;49.964;7.890;2023-07-20T04:43:17;17.50;1.00
15296;DHT22;7749;49.964;7.890;2023-07-20T04:45:45;17.50;1.00
15296;DHT22;7749;49.964;7.890;2023-07-20T04:48:14;17.40;1.00
15296;DHT22;7749;49.964;7.890;2023-07-20T04:50:43;17.50;1.00
15296;DHT22;7749;49.964;7.890;2023-07-20T04:53:12;17.60;1.00
15296;DHT22;7749;49.964;7.890;2023-07-20T04:55:40;17.70;1.00
15296;DHT22;7749;49.964;7.890;2023-07-20T04:58:09;17.80;1.00
15296;DHT22;7749;49.964;7.890;2023-07-20T05:00:38;17.90;1.00
15296;DHT22;7749;49.964;7.890;2023-07-20T05:03:05;17.90;1.00
15296;DHT22;7749;49.964;7.890;2023-07-20T05:05:33;18.00;1.00
15296;DHT22;7749;49.964;7.890;2023-07-20T05:08:01;18.10;1.00
15296;DHT22;7749;49.964;7.890;2023-07-20T05:10:28;18.10;1.00
15296;DHT22;7749;49.964;7.890;2023-07-20T05:12:55;18.10;1.00
15296;DHT22;7749;49.964;7.890;2023-07-20T05:15:23;18.20;1.00
15296;DHT22;7749;49.964;7.890;2023-07-20T05:17:50;18.30;1.00
15296;DHT22;7749;49.964;7.890;2023-07-20T05:20:19;18.40;1.00
15296;DHT22;7749;49.964;7.890;2023-07-20T05:22:47;18.50;1.00
15296;DHT22;7749;49.964;7.890;2023-07-20T05:25:15;18.50;1.00
15296;DHT22;7749;49.964;7.890;2023-07-20T05:27:45;18.60;1.00
15296;DHT22;7749;49.964;7.890;2023-07-20T05:30:13;18.60;1.00
15296;DHT22;7749;49.964;7.890;2023-07-20T05:32:42;18.70;1.00
15296;DHT22;7749;49.964;7.890;2023-07-20T05:35:09;18.70;1.00
15296;DHT22;7749;49.964;7.890;2023-07-20T05:37:38;18.80;1.00
15296;DHT22;7749;49.964;7.890;2023-07-20T05:40:06;18.80;1.00
15296;DHT22;7749;49.964;7.890;2023-07-20T05:42:35;18.70;1.00
15296;DHT22;7749;49.964;7.890;2023-07-20T05:45:03;18.60;1.00
15296;DHT22;7749;49.964;7.890;2023-07-20T05:47:30;18.70;1.00
15296;DHT22;7749;49.964;7.890;2023-07-20T05:49:59;18.60;1.00
15296;DHT22;7749;49.964;7.890;2023-07-20T05:52:26;18.70;1.00
15296;DHT22;7749;49.964;7.890;2023-07-20T05:54:54;18.90;99.90
15296;DHT22;7749;49.964;7.890;2023-07-20T05:57:22;18.90;99.90
15296;DHT22;7749;49.964;7.890;2023-07-20T05:59:52;19.10;99.90
15296;DHT22;7749;49.964;7.890;2023-07-20T06:02:20;19.20;99.90
15296;DHT22;7749;49.964;7.890;2023-07-20T06:04:47;19.30;99.90
15296;DHT22;7749;49.964;7.890;2023-07-20T06:07:15;19.40;1.00
15296;DHT22;7749;49.964;7.890;2023-07-20T06:09:42;19.40;1.00
15296;DHT22;7749;49.964;7.890;2023-07-20T06:12:09;19.40;1.00
15296;DHT22;7749;49.964;7.890;2023-07-20T06:14:37;19.20;1.00
15296;DHT22;7749;49.964;7.890;2023-07-20T06:17:05;19.20;99.90
15296;DHT22;7749;49.964;7.890;2023-07-20T06:19:33;19.20;1.00
15296;DHT22;7749;49.964;7.890;2023-07-20T06:22:00;19.30;1.00
15296;DHT22;7749;49.964;7.890;2023-07-20T06:24:28;19.50;1.00
15296;DHT22;7749;49.964;7.890;2023-07-20T06:26:55;19.70;1.00
15296;DHT22;7749;49.964;7.890;2023-07-20T06:29:23;19.80;1.00
15296;DHT22;7749;49.964;7.890;2023-07-20T06:31:50;19.80;1.00
15296;DHT22;7749;49.964;7.890;2023-07-20T06:34:18;20.00;1.00
15296;DHT22;7749;49.964;7.890;2023-07-20T06:36:50;20.20;99.90
15296;DHT22;7749;49.964;7.890;2023-07-20T06:39:17;20.50;1.00
15296;DHT22;7749;49.964;7.890;2023-07-20T06:41:47;20.70;1.00
15296;DHT22;7749;49.964;7.890;2023-07-20T06:44:15;21.00;1.00
15296;DHT22;7749;49.964;7.890;2023-07-20T06:46:43;21.00;1.00
15296;DHT22;7749;49.964;7.890;2023-07-20T06:49:26;21.20;11.80
15296;DHT22;7749;49.964;7.890;2023-07-20T06:51:54;21.50;1.00
15296;DHT22;7749;49.964;7.890;2023-07-20T06:54:22;21.50;1.00
15296;DHT22;7749;49.964;7.890;2023-07-20T06:56:50;21.60;1.00
15296;DHT22;7749;49.964;7.890;2023-07-20T06:59:21;22.00;47.10
15296;DHT22;7749;49.964;7.890;2023-07-20T07:01:48;22.30;99.90
15296;DHT22;7749;49.964;7.890;2023-07-20T07:04:16;22.00;99.90
15296;DHT22;7749;49.964;7.890;2023-07-20T07:06:43;22.00;1.00
15296;DHT22;7749;49.964;7.890;2023-07-20T07:09:12;22.40;99.90
15296;DHT22;7749;49.964;7.890;2023-07-20T07:11:39;22.60;1.00
15296;DHT22;7749;49.964;7.890;2023-07-20T07:14:07;22.40;1.00
15296;DHT22;7749;49.964;7.890;2023-07-20T07:16:35;22.40;99.90
15296;DHT22;7749;49.964;7.890;2023-07-20T07:19:05;22.40;99.90
15296;DHT22;7749;49.964;7.890;2023-07-20T07:21:34;22.60;99.90
15296;DHT22;7749;49.964;7.890;2023-07-20T07:24:02;22.70;6.30
15296;DHT22;7749;49.964;7.890;2023-07-20T07:26:30;22.80;1.00
15296;DHT22;7749;49.964;7.890;2023-07-20T07:29:00;22.90;1.00
15296;DHT22;7749;49.964;7.890;2023-07-20T07:31:29;22.90;1.00
15296;DHT22;7749;49.964;7.890;2023-07-20T07:33:57;22.80;1.00
15296;DHT22;7749;49.964;7.890;2023-07-20T07:36:24;22.80;1.00
15296;DHT22;7749;49.964;7.890;2023-07-20T07:38:52;22.90;1.00
15296;DHT22;7749;49.964;7.890;2023-07-20T07:41:22;23.10;1.00
15296;DHT22;7749;49.964;7.890;2023-07-20T07:43:50;23.00;1.00
15296;DHT22;7749;49.964;7.890;2023-07-20T07:46:18;22.90;1.00
15296;DHT22;7749;49.964;7.890;2023-07-20T07:48:45;22.90;1.00
15296;DHT22;7749;49.964;7.890;2023-07-20T07:51:12;22.90;1.00
15296;DHT22;7749;49.964;7.890;2023-07-20T07:53:41;23.00;1.00
15296;DHT22;7749;49.964;7.890;2023-07-20T07:56:10;23.40;1.00
15296;DHT22;7749;49.964;7.890;2023-07-20T07:58:37;24.00;99.90
15296;DHT22;7749;49.964;7.890;2023-07-20T08:01:05;24.50;99.90
15296;DHT22;7749;49.964;7.890;2023-07-20T08:03:32;24.60;99.90
15296;DHT22;7749;49.964;7.890;2023-07-20T08:06:00;24.60;65.70
15296;DHT22;7749;49.964;7.890;2023-07-20T08:08:27;24.30;46.70
15296;DHT22;7749;49.964;7.890;2023-07-20T08:10:55;23.80;53.50
15296;DHT22;7749;49.964;7.890;2023-07-20T08:13:22;23.80;80.00
15296;DHT22;7749;49.964;7.890;2023-07-20T08:15:51;24.10;99.90
15296;DHT22;7749;49.964;7.890;2023-07-20T08:18:19;24.40;23.20
15296;DHT22;7749;49.964;7.890;2023-07-20T08:20:47;24.50;1.00
15296;DHT22;7749;49.964;7.890;2023-07-20T08:23:16;24.60;1.00
15296;DHT22;7749;49.964;7.890;2023-07-20T08:25:43;24.50;1.00
15296;DHT22;7749;49.964;7.890;2023-07-20T08:28:15;24.30;1.00
15296;DHT22;7749;49.964;7.890;2023-07-20T08:30:46;23.90;1.00
15296;DHT22;7749;49.964;7.890;2023-07-20T08:33:15;23.60;1.00
15296;DHT22;7749;49.964;7.890;2023-07-20T08:35:43;23.80;1.00
15296;DHT22;7749;49.964;7.890;2023-07-20T08:38:10;23.60;1.00
15296;DHT22;7749;49.964;7.890;2023-07-20T08:40:43;23.60;1.00
15296;DHT22;7749;49.964;7.890;2023-07-20T08:43:11;23.70;1.00
15296;DHT22;7749;49.964;7.890;2023-07-20T08:45:40;24.20;1.00
15296;DHT22;7749;49.964;7.890;2023-07-20T08:48:08;24.30;1.00
15296;DHT22;7749;49.964;7.890;2023-07-20T08:50:37;24.40;1.00
15296;DHT22;7749;49.964;7.890;2023-07-20T08:53:06;24.30;1.00
15296;DHT22;7749;49.964;7.890;2023-07-20T08:55:34;24.00;1.00
15296;DHT22;7749;49.964;7.890;2023-07-20T08:58:03;23.70;1.00
15296;DHT22;7749;49.964;7.890;2023-07-20T09:00:32;23.80;1.00
15296;DHT22;7749;49.964;7.890;2023-07-20T09:03:02;23.80;1.00
15296;DHT22;7749;49.964;7.890;2023-07-20T09:05:30;23.90;1.00
15296;DHT22;7749;49.964;7.890;2023-07-20T09:08:00;24.20;1.00
15296;DHT22;7749;49.964;7.890;2023-07-20T09:10:28;24.50;1.00
15296;DHT22;7749;49.964;7.890;2023-07-20T09:12:55;24.60;1.00
15296;DHT22;7749;49.964;7.890;2023-07-20T09:15:23;24.70;1.00
15296;DHT22;7749;49.964;7.890;2023-07-20T09:17:51;24.50;1.00
15296;DHT22;7749;49.964;7.890;2023-07-20T09:20:20;24.30;1.00
15296;DHT22;7749;49.964;7.890;2023-07-20T09:22:51;24.10;1.00
15296;DHT22;7749;49.964;7.890;2023-07-20T09:25:20;23.90;1.00
15296;DHT22;7749;49.964;7.890;2023-07-20T09:27:50;24.20;1.00
15296;DHT22;7749;49.964;7.890;2023-07-20T09:30:19;24.30;1.00
15296;DHT22;7749;49.964;7.890;2023-07-20T09:32:57;24.60;1.00
15296;DHT22;7749;49.964;7.890;2023-07-20T09:35:26;24.90;1.00
15296;DHT22;7749;49.964;7.890;2023-07-20T09:38:07;25.00;1.00
15296;DHT22;7749;49.964;7.890;2023-07-20T09:40:39;24.60;1.00
15296;DHT22;7749;49.964;7.890;2023-07-20T09:43:11;24.60;1.00
15296;DHT22;7749;49.964;7.890;2023-07-20T09:45:42;24.50;1.00
15296;DHT22;7749;49.964;7.890;2023-07-20T09:48:13;24.40;1.00
15296;DHT22;7749;49.964;7.890;2023-07-20T09:50:49;23.90;1.00
15296;DHT22;7749;49.964;7.890;2023-07-20T09:53:18;23.90;1.00
15296;DHT22;7749;49.964;7.890;2023-07-20T09:55:47;24.20;1.00
15296;DHT22;7749;49.964;7.890;2023-07-20T09:58:16;24.50;1.00
15296;DHT22;7749;49.964;7.890;2023-07-20T10:00:45;25.00;1.00
15296;DHT22;7749;49.964;7.890;2023-07-20T10:03:21;25.20;1.00
15296;DHT22;7749;49.964;7.890;2023-07-20T10:05:56;25.10;1.00
15296;DHT22;7749;49.964;7.890;2023-07-20T10:08:25;25.30;1.00
15296;DHT22;7749;49.964;7.890;2023-07-20T10:10:59;25.50;1.00
15296;DHT22;7749;49.964;7.890;2023-07-20T10:13:29;25.80;1.00
15296;DHT22;7749;49.964;7.890;2023-07-20T10:16:02;25.80;1.00
15296;DHT22;7749;49.964;7.890;2023-07-20T10:18:50;25.70;1.00
15296;DHT22;7749;49.964;7.890;2023-07-20T10:21:20;25.20;1.00
15296;DHT22;7749;49.964;7.890;2023-07-20T10:23:55;25.10;1.00
15296;DHT22;7749;49.964;7.890;2023-07-20T10:26:26;25.10;1.00
15296;DHT22;7749;49.964;7.890;2023-07-20T10:32:22;24.70;1.00
15296;DHT22;7749;49.964;7.890;2023-07-20T10:34:56;25.50;1.00
15296;DHT22;7749;49.964;7.890;2023-07-20T10:40:33;26.40;1.00
15296;DHT22;7749;49.964;7.890;2023-07-20T10:43:05;26.30;99.90
15296;DHT22;7749;49.964;7.890;2023-07-20T10:48:35;26.40;99.90
15296;DHT22;7749;49.964;7.890;2023-07-20T10:51:23;26.70;99.90
15296;DHT22;7749;49.964;7.890;2023-07-20T10:53:50;27.00;99.90
15296;DHT22;7749;49.964;7.890;2023-07-20T10:56:21;27.20;99.90
15296;DHT22;7749;49.964;7.890;2023-07-20T10:58:49;27.60;99.90
15296;DHT22;7749;49.964;7.890;2023-07-20T11:01:18;27.40;99.90
15296;DHT22;7749;49.964;7.890;2023-07-20T11:03:50;27.30;99.90
15296;DHT22;7749;49.964;7.890;2023-07-20T11:09:09;28.50;99.90
15296;DHT22;7749;49.964;7.890;2023-07-20T11:12:09;29.20;99.90
15296;DHT22;7749;49.964;7.890;2023-07-20T11:14:42;29.50;99.90
15296;DHT22;7749;49.964;7.890;2023-07-20T11:17:14;28.90;99.90
15296;DHT22;7749;49.964;7.890;2023-07-20T11:19:42;27.90;99.90
15296;DHT22;7749;49.964;7.890;2023-07-20T11:22:12;27.60;99.90
15296;DHT22;7749;49.964;7.890;2023-07-20T11:24:40;27.70;99.90
15296;DHT22;7749;49.964;7.890;2023-07-20T11:27:08;28.20;99.90
15296;DHT22;7749;49.964;7.890;2023-07-20T11:29:37;29.20;99.90
15296;DHT22;7749;49.964;7.890;2023-07-20T11:32:05;29.20;99.90
15296;DHT22;7749;49.964;7.890;2023-07-20T11:34:34;28.40;99.90
15296;DHT22;7749;49.964;7.890;2023-07-20T11:37:02;28.50;99.90
15296;DHT22;7749;49.964;7.890;2023-07-20T11:39:34;28.40;99.90
15296;DHT22;7749;49.964;7.890;2023-07-20T11:42:01;28.20;99.90
15296;DHT22;7749;49.964;7.890;2023-07-20T11:44:29;28.60;99.90
15296;DHT22;7749;49.964;7.890;2023-07-20T11:47:08;29.00;99.90
15296;DHT22;7749;49.964;7.890;2023-07-20T11:49:37;29.80;99.90
15296;DHT22;7749;49.964;7.890;2023-07-20T11:52:07;30.70;99.90
15296;DHT22;7749;49.964;7.890;2023-07-20T11:54:35;33.60;99.90
15296;DHT22;7749;49.964;7.890;2023-07-20T11:57:03;35.70;99.90
15296;DHT22;7749;49.964;7.890;2023-07-20T11:59:33;36.10;99.90
15296;DHT22;7749;49.964;7.890;2023-07-20T12:02:03;35.10;99.90
15296;DHT22;7749;49.964;7.890;2023-07-20T12:04:32;34.60;99.90
15296;DHT22;7749;49.964;7.890;2023-07-20T12:07:00;35.70;99.90
15296;DHT22;7749;49.964;7.890;2023-07-20T12:09:28;37.30;99.90
15296;DHT22;7749;49.964;7.890;2023-07-20T12:12:15;38.40;99.90
15296;DHT22;7749;49.964;7.890;2023-07-20T12:14:43;39.40;94.00
15296;DHT22;7749;49.964;7.890;2023-07-20T12:17:10;38.20;93.10
15296;DHT22;7749;49.964;7.890;2023-07-20T12:19:38;37.70;92.10
15296;DHT22;7749;49.964;7.890;2023-07-20T12:22:07;38.60;91.00
15296;DHT22;7749;49.964;7.890;2023-07-20T12:24:35;38.40;81.50
15296;DHT22;7749;49.964;7.890;2023-07-20T12:27:03;37.40;80.30
15296;DHT22;7749;49.964;7.890;2023-07-20T12:29:31;37.30;83.40
15296;DHT22;7749;49.964;7.890;2023-07-20T12:32:04;37.90;77.10
15296;DHT22;7749;49.964;7.890;2023-07-20T12:34:32;39.30;62.80
15296;DHT22;7749;49.964;7.890;2023-07-20T12:37:05;39.40;60.10
15296;DHT22;7749;49.964;7.890;2023-07-20T12:39:32;39.00;57.00
15296;DHT22;7749;49.964;7.890;2023-07-20T12:42:02;39.10;56.50
15296;DHT22;7749;49.964;7.890;2023-07-20T12:44:35;38.30;52.80
15296;DHT22;7749;49.964;7.890;2023-07-20T12:47:07;38.50;51.50
15296;DHT22;7749;49.964;7.890;2023-07-20T12:49:34;39.70;43.80
15296;DHT22;7749;49.964;7.890;2023-07-20T12:52:02;40.40;32.40
15296;DHT22;7749;49.964;7.890;2023-07-20T12:54:30;40.50;22.80
15296;DHT22;7749;49.964;7.890;2023-07-20T12:56:58;40.90;19.50
15296;DHT22;7749;49.964;7.890;2023-07-20T12:59:29;40.60;19.70
15296;DHT22;7749;49.964;7.890;2023-07-20T13:01:58;40.00;19.10
15296;DHT22;7749;49.964;7.890;2023-07-20T13:04:26;40.00;20.00
15296;DHT22;7749;49.964;7.890;2023-07-20T13:06:53;40.50;14.10
15296;DHT22;7749;49.964;7.890;2023-07-20T13:09:21;40.30;15.20
15296;DHT22;7749;49.964;7.890;2023-07-20T13:11:49;39.60;18.30
15296;DHT22;7749;49.964;7.890;2023-07-20T13:14:17;38.50;18.40
15296;DHT22;7749;49.964;7.890;2023-07-20T13:16:45;39.60;12.80
15296;DHT22;7749;49.964;7.890;2023-07-20T13:19:12;39.40;15.80
15296;DHT22;7749;49.964;7.890;2023-07-20T13:21:40;36.80;22.10
15296;DHT22;7749;49.964;7.890;2023-07-20T13:24:08;32.60;49.40
15296;DHT22;7749;49.964;7.890;2023-07-20T13:26:36;30.10;69.70
15296;DHT22;7749;49.964;7.890;2023-07-20T13:29:03;29.20;82.30
15296;DHT22;7749;49.964;7.890;2023-07-20T13:31:31;28.30;90.80
15296;DHT22;7749;49.964;7.890;2023-07-20T13:34:01;27.90;94.80
15296;DHT22;7749;49.964;7.890;2023-07-20T13:36:30;27.60;97.80
15296;DHT22;7749;49.964;7.890;2023-07-20T13:38:58;27.20;99.60
15296;DHT22;7749;49.964;7.890;2023-07-20T13:41:26;26.80;99.90
15296;DHT22;7749;49.964;7.890;2023-07-20T13:43:57;26.30;99.90
15296;DHT22;7749;49.964;7.890;2023-07-20T13:46:25;26.20;99.90
15296;DHT22;7749;49.964;7.890;2023-07-20T13:48:55;26.20;99.90
15296;DHT22;7749;49.964;7.890;2023-07-20T13:51:25;26.20;99.90
15296;DHT22;7749;49.964;7.890;2023-07-20T13:53:54;26.10;99.90
15296;DHT22;7749;49.964;7.890;2023-07-20T13:56:22;26.70;99.90
15296;DHT22;7749;49.964;7.890;2023-07-20T13:58:50;27.10;99.90
15296;DHT22;7749;49.964;7.890;2023-07-20T14:01:18;27.40;99.90
15296;DHT22;7749;49.964;7.890;2023-07-20T14:03:49;27.40;99.90
15296;DHT22;7749;49.964;7.890;2023-07-20T14:06:20;27.60;99.90
15296;DHT22;7749;49.964;7.890;2023-07-20T14:08:51;27.50;99.90
15296;DHT22;7749;49.964;7.890;2023-07-20T14:11:20;27.10;99.90
15296;DHT22;7749;49.964;7.890;2023-07-20T14:13:51;27.00;99.90
15296;DHT22;7749;49.964;7.890;2023-07-20T14:16:22;26.60;99.90
15296;DHT22;7749;49.964;7.890;2023-07-20T14:18:51;26.20;99.90
15296;DHT22;7749;49.964;7.890;2023-07-20T14:21:20;26.10;99.90
15296;DHT22;7749;49.964;7.890;2023-07-20T14:23:48;26.30;99.90
15296;DHT22;7749;49.964;7.890;2023-07-20T14:26:21;26.50;99.90
15296;DHT22;7749;49.964;7.890;2023-07-20T14:28:49;26.60;99.90
15296;DHT22;7749;49.964;7.890;2023-07-20T14:31:17;26.90;99.90
15296;DHT22;7749;49.964;7.890;2023-07-20T14:33:46;27.60;99.90
15296;DHT22;7749;49.964;7.890;2023-07-20T14:36:13;29.20;99.90
15296;DHT22;7749;49.964;7.890;2023-07-20T14:38:41;29.40;99.90
15296;DHT22;7749;49.964;7.890;2023-07-20T14:41:08;28.60;99.90
15296;DHT22;7749;49.964;7.890;2023-07-20T14:43:36;27.60;99.90
15296;DHT22;7749;49.964;7.890;2023-07-20T14:46:03;27.60;99.90
15296;DHT22;7749;49.964;7.890;2023-07-20T14:48:37;27.20;99.90
15296;DHT22;7749;49.964;7.890;2023-07-20T14:51:08;27.40;99.90
15296;DHT22;7749;49.964;7.890;2023-07-20T14:53:38;27.50;99.90
15296;DHT22;7749;49.964;7.890;2023-07-20T14:56:06;27.50;99.90
15296;DHT22;7749;49.964;7.890;2023-07-20T14:58:35;27.60;99.90
15296;DHT22;7749;49.964;7.890;2023-07-20T15:01:03;27.40;99.90
15296;DHT22;7749;49.964;7.890;2023-07-20T15:03:31;27.60;99.90
15296;DHT22;7749;49.964;7.890;2023-07-20T15:05:59;27.60;99.90
15296;DHT22;7749;49.964;7.890;2023-07-20T15:08:27;27.60;99.90
15296;DHT22;7749;49.964;7.890;2023-07-20T15:10:55;27.10;99.90
15296;DHT22;7749;49.964;7.890;2023-07-20T15:13:22;26.90;99.90
15296;DHT22;7749;49.964;7.890;2023-07-20T15:15:50;26.70;99.90
15296;DHT22;7749;49.964;7.890;2023-07-20T15:18:18;26.50;99.90
15296;DHT22;7749;49.964;7.890;2023-07-20T15:20:54;26.50;99.90
15296;DHT22;7749;49.964;7.890;2023-07-20T15:23:21;26.70;99.90
15296;DHT22;7749;49.964;7.890;2023-07-20T15:25:49;26.90;99.90
15296;DHT22;7749;49.964;7.890;2023-07-20T15:28:17;27.80;99.90
15296;DHT22;7749;49.964;7.890;2023-07-20T15:30:45;30.30;99.90
15296;DHT22;7749;49.964;7.890;2023-07-20T15:33:15;33.00;99.00
15296;DHT22;7749;49.964;7.890;2023-07-20T15:35:43;34.60;86.90
15296;DHT22;7749;49.964;7.890;2023-07-20T15:38:11;35.70;67.10
15296;DHT22;7749;49.964;7.890;2023-07-20T15:40:43;35.00;66.80
15296;DHT22;7749;49.964;7.890;2023-07-20T15:43:10;35.40;58.10
15296;DHT22;7749;49.964;7.890;2023-07-20T15:45:40;34.20;62.60
15296;DHT22;7749;49.964;7.890;2023-07-20T15:48:10;33.00;75.70
15296;DHT22;7749;49.964;7.890;2023-07-20T15:50:37;32.40;78.00
15296;DHT22;7749;49.964;7.890;2023-07-20T15:53:05;33.80;71.20
15296;DHT22;7749;49.964;7.890;2023-07-20T15:55:33;35.70;56.80
15296;DHT22;7749;49.964;7.890;2023-07-20T15:58:02;36.50;44.90
15296;DHT22;7749;49.964;7.890;2023-07-20T16:00:30;35.70;46.80
15296;DHT22;7749;49.964;7.890;2023-07-20T16:02:57;34.30;54.10
15296;DHT22;7749;49.964;7.890;2023-07-20T16:05:25;34.40;57.40
15296;DHT22;7749;49.964;7.890;2023-07-20T16:07:54;33.30;59.40
15296;DHT22;7749;49.964;7.890;2023-07-20T16:10:23;32.50;64.70
15296;DHT22;7749;49.964;7.890;2023-07-20T16:12:51;32.10;72.60
15296;DHT22;7749;49.964;7.890;2023-07-20T16:15:19;32.20;70.90
15296;DHT22;7749;49.964;7.890;2023-07-20T16:17:50;32.80;66.70
15296;DHT22;7749;49.964;7.890;2023-07-20T16:20:18;32.80;65.50
15296;DHT22;7749;49.964;7.890;2023-07-20T16:22:45;31.90;73.50
15296;DHT22;7749;49.964;7.890;2023-07-20T16:25:13;31.10;78.80
15296;DHT22;7749;49.964;7.890;2023-07-20T16:27:40;30.70;85.50
15296;DHT22;7749;49.964;7.890;2023-07-20T16:30:08;31.00;81.20
15296;DHT22;7749;49.964;7.890;2023-07-20T16:32:36;32.00;79.40